Terminal Aerodrome Forecast
Issued by NWS

Home | Current Version | Previous Version | Text Only | Print | Product List | Glossary On
Versions: 1 2 3 4 5 6 7 8 9 10 11 12 13 14 15 16 17 18 19
000
FTUS46 KSEW 272300
TAFHQM
TAF
KHQM 272334Z 2800/2824 25012KT 6SM BR SCT008
     FM280400 25012KT 6SM BR OVC006
      TEMPO 2812/2816 3SM -DZ OVC004
     FM282000 25008KT P6SM OVC011
     FM282300 25008KT P6SM BKN016=

USA.gov is the U.S. government's official web portal to all federal, state and local government web resources and services.